Time;durP1;ratioP1;P1;durP2;ratioP2;P2;SDS_P1;SDS_P2;PMS_P1;PMS_P2;Temp;Humidity;BMP_temperature;BMP_pressure;BME280_temperature;BME280_humidity;BME280_pressure;Samples;Min_cycle;Max_cycle;Signal;HPM_P1;HPM_P2
2022/04/19 00:00:20;;;;;;;0.70;0.60;;;10.90;58.60;;;;;;5096196;28;20036;-72
2022/04/19 00:02:46;;;;;;;0.43;0.43;;;10.80;58.50;;;;;;5114496;28;20060;-72
2022/04/19 00:05:12;;;;;;;0.73;0.60;;;10.70;58.50;;;;;;5096669;28;20040;-71
2022/04/19 00:07:38;;;;;;;0.82;0.50;;;10.70;58.60;;;;;;5114590;28;20039;-72
2022/04/19 00:10:05;;;;;;;0.77;0.60;;;10.60;58.70;;;;;;5114327;28;20132;-71
2022/04/19 00:12:31;;;;;;;0.70;0.60;;;10.60;59.00;;;;;;5114732;28;20104;-71
2022/04/19 00:14:57;;;;;;;0.90;0.60;;;10.50;58.90;;;;;;5114249;28;20469;-71
2022/04/19 00:17:22;;;;;;;0.55;0.50;;;10.50;59.10;;;;;;5114778;28;20043;-72
2022/04/19 00:19:48;;;;;;;0.40;0.40;;;10.40;59.10;;;;;;5096112;28;20035;-72
2022/04/19 00:22:14;;;;;;;1.38;0.80;;;10.40;59.10;;;;;;5114126;28;20040;-72
2022/04/19 00:24:40;;;;;;;0.60;0.55;;;10.40;59.10;;;;;;5114065;28;20068;-71
2022/04/19 00:27:06;;;;;;;0.50;0.50;;;10.50;59.10;;;;;;5114147;28;20424;-71
2022/04/19 00:29:31;;;;;;;0.82;0.68;;;10.40;59.00;;;;;;5114231;28;20040;-71
2022/04/19 00:31:57;;;;;;;0.70;0.57;;;10.40;59.00;;;;;;5114024;28;20044;-72
2022/04/19 00:34:23;;;;;;;0.40;0.40;;;10.50;59.00;;;;;;5095606;28;20031;-71
2022/04/19 00:36:49;;;;;;;0.57;0.50;;;10.50;58.90;;;;;;5114145;28;20491;-71
2022/04/19 00:39:14;;;;;;;0.95;0.60;;;10.40;58.80;;;;;;5113915;28;20119;-72
2022/04/19 00:41:40;;;;;;;0.63;0.57;;;10.50;58.90;;;;;;5114566;28;20405;-71
2022/04/19 00:44:07;;;;;;;0.93;0.63;;;10.50;58.80;;;;;;5113819;28;20500;-72
2022/04/19 00:46:33;;;;;;;0.57;0.50;;;10.40;58.70;;;;;;5113766;28;20043;-72
2022/04/19 00:48:59;;;;;;;0.80;0.60;;;10.40;58.80;;;;;;5113750;28;20044;-72
2022/04/19 00:51:26;;;;;;;0.75;0.60;;;10.40;58.80;;;;;;5113836;28;20319;-71
2022/04/19 00:53:52;;;;;;;0.80;0.70;;;10.30;58.80;;;;;;5095886;28;20050;-72
2022/04/19 00:56:18;;;;;;;0.60;0.60;;;10.30;58.80;;;;;;5113547;28;20039;-71
2022/04/19 00:58:44;;;;;;;0.85;0.47;;;10.30;58.90;;;;;;5095341;28;20465;-71
2022/04/19 01:01:10;;;;;;;0.60;0.60;;;10.30;58.90;;;;;;5113568;28;20035;-71
2022/04/19 01:03:37;;;;;;;0.88;0.63;;;10.30;58.80;;;;;;5113913;28;20538;-72
2022/04/19 01:06:04;;;;;;;0.80;0.57;;;10.30;58.80;;;;;;5113377;28;20047;-71
2022/04/19 01:08:30;;;;;;;1.38;0.77;;;10.30;58.70;;;;;;5113442;28;20043;-71
2022/04/19 01:13:40;;;;;;;0.75;0.60;;;10.30;58.80;;;;;;5097993;28;20490;-71
2022/04/19 01:16:06;;;;;;;0.50;0.50;;;10.20;58.80;;;;;;5113949;28;20036;-71
2022/04/19 01:18:33;;;;;;;0.63;0.60;;;10.10;58.80;;;;;;5113357;28;20051;-72
2022/04/19 01:20:59;;;;;;;0.55;0.55;;;10.10;59.00;;;;;;5095681;28;20069;-72
2022/04/19 01:23:25;;;;;;;0.77;0.73;;;10.00;59.20;;;;;;5113432;28;20048;-72
2022/04/19 01:25:51;;;;;;;1.02;0.70;;;9.90;59.30;;;;;;5113192;28;20042;-71
2022/04/19 01:28:19;;;;;;;0.50;0.50;;;9.80;59.50;;;;;;5113753;28;20392;-72
2022/04/19 01:30:52;;;;;;;0.95;0.68;;;9.80;59.60;;;;;;5095153;28;20245;-72
2022/04/19 01:33:20;;;;;;;0.88;0.70;;;9.70;59.70;;;;;;5113062;28;20497;-72
2022/04/19 01:35:46;;;;;;;0.38;0.30;;;9.80;59.70;;;;;;5112931;28;20065;-72
2022/04/19 01:38:12;;;;;;;0.50;0.50;;;9.70;59.60;;;;;;5113179;28;20039;-71
2022/04/19 01:40:38;;;;;;;0.75;0.60;;;9.70;59.60;;;;;;5094661;28;20042;-72
2022/04/19 01:43:04;;;;;;;0.60;0.60;;;9.70;59.70;;;;;;5112960;28;20035;-72
2022/04/19 01:45:32;;;;;;;0.47;0.40;;;9.60;59.70;;;;;;5113421;28;20043;-72
2022/04/19 01:48:00;;;;;;;0.60;0.52;;;9.50;59.90;;;;;;5113312;28;20046;-71
2022/04/19 01:50:28;;;;;;;0.70;0.60;;;9.50;60.00;;;;;;5113395;28;20044;-72
2022/04/19 01:52:54;;;;;;;0.70;0.60;;;9.50;60.00;;;;;;5113244;28;20045;-72
2022/04/19 01:55:21;;;;;;;0.93;0.60;;;9.40;60.10;;;;;;5094584;28;20922;-71
2022/04/19 01:57:50;;;;;;;0.70;0.40;;;9.30;60.30;;;;;;5112791;28;20397;-72
2022/04/19 02:00:16;;;;;;;0.88;0.70;;;9.20;60.50;;;;;;5112747;28;20036;-72
2022/04/19 02:02:44;;;;;;;0.70;0.70;;;9.20;60.60;;;;;;5094353;28;20035;-72
2022/04/19 02:05:10;;;;;;;0.65;0.57;;;9.10;60.70;;;;;;5095236;28;20044;-71
2022/04/19 02:07:39;;;;;;;1.08;0.70;;;9.10;60.90;;;;;;5094350;28;20043;-71
2022/04/19 02:10:08;;;;;;;0.30;0.30;;;9.10;61.00;;;;;;5112952;28;20527;-72
2022/04/19 02:12:34;;;;;;;1.13;0.82;;;9.10;61.10;;;;;;5094274;28;20489;-72
2022/04/19 02:15:00;;;;;;;0.80;0.57;;;9.00;61.00;;;;;;5112508;28;20031;-71
2022/04/19 02:17:26;;;;;;;0.50;0.50;;;9.10;60.90;;;;;;5111763;28;20461;-72
2022/04/19 02:20:01;;;;;;;0.50;0.50;;;9.10;60.80;;;;;;5112482;28;20070;-71
2022/04/19 02:22:29;;;;;;;0.63;0.60;;;9.20;60.70;;;;;;5077826;28;20439;-72
2022/04/19 02:24:56;;;;;;;0.90;0.60;;;9.20;60.50;;;;;;5113029;28;20085;-71
2022/04/19 02:27:24;;;;;;;0.50;0.50;;;9.20;60.40;;;;;;5077491;28;20039;-71
2022/04/19 02:29:50;;;;;;;0.38;0.38;;;9.20;60.30;;;;;;5094401;28;20055;-71
2022/04/19 02:32:16;;;;;;;0.98;0.60;;;9.30;60.30;;;;;;5112962;28;20044;-72
2022/04/19 02:34:42;;;;;;;0.50;0.50;;;9.20;60.30;;;;;;5112268;28;20120;-72
2022/04/19 02:37:08;;;;;;;0.60;0.60;;;9.20;60.20;;;;;;5112644;28;20078;-72
2022/04/19 02:39:34;;;;;;;0.85;0.68;;;9.30;60.30;;;;;;5112156;28;20032;-71
2022/04/19 02:42:00;;;;;;;0.95;0.60;;;9.10;60.10;;;;;;5112319;28;20071;-72
2022/04/19 02:44:25;;;;;;;0.57;0.55;;;9.20;60.10;;;;;;5077011;28;20047;-72
2022/04/19 02:46:51;;;;;;;1.13;0.68;;;9.20;60.10;;;;;;5112244;28;20089;-73
2022/04/19 02:49:17;;;;;;;0.60;0.57;;;9.10;60.00;;;;;;5093651;28;20046;-72
2022/04/19 02:51:42;;;;;;;0.47;0.47;;;9.10;60.10;;;;;;5112246;28;20079;-71
2022/04/19 02:54:08;;;;;;;0.90;0.63;;;9.10;60.10;;;;;;5112012;28;20131;-72
2022/04/19 02:56:34;;;;;;;0.60;0.50;;;9.10;60.10;;;;;;5112871;28;20084;-72
2022/04/19 02:59:00;;;;;;;0.65;0.40;;;9.10;60.10;;;;;;5111955;28;20032;-71
2022/04/19 03:01:26;;;;;;;0.70;0.60;;;9.10;60.10;;;;;;5093586;28;20515;-72
2022/04/19 03:03:52;;;;;;;0.40;0.40;;;9.10;60.70;;;;;;5112166;28;20481;-72
2022/04/19 03:06:18;;;;;;;0.65;0.55;;;9.00;60.20;;;;;;5112298;28;20036;-71
2022/04/19 03:08:44;;;;;;;0.75;0.68;;;8.90;60.30;;;;;;5112089;28;20151;-72
2022/04/19 03:11:10;;;;;;;0.60;0.50;;;8.90;60.50;;;;;;5111898;28;20404;-72
2022/04/19 03:13:36;;;;;;;0.77;0.52;;;8.80;60.60;;;;;;5111793;28;20039;-71
2022/04/19 03:16:03;;;;;;;0.90;0.60;;;8.80;60.60;;;;;;5111746;28;20046;-71
2022/04/19 03:18:30;;;;;;;0.73;0.52;;;8.80;60.70;;;;;;5112149;28;20134;-72
2022/04/19 03:20:57;;;;;;;0.70;0.60;;;8.80;60.60;;;;;;5111965;28;20032;-72
2022/04/19 03:28:50;;;;;;;0.75;0.50;;;8.90;60.50;;;;;;5096673;28;20124;-71
2022/04/19 03:31:15;;;;;;;0.40;0.40;;;8.80;60.30;;;;;;5096894;28;20059;-72
2022/04/19 03:33:41;;;;;;;1.13;0.55;;;8.80;60.40;;;;;;5097173;28;20136;-71
2022/04/19 03:36:08;;;;;;;0.90;0.70;;;8.80;60.50;;;;;;5115111;28;20040;-71
2022/04/19 03:38:35;;;;;;;0.50;0.50;;;8.70;60.60;;;;;;5114864;28;20129;-71
2022/04/19 03:41:02;;;;;;;0.45;0.45;;;8.60;60.70;;;;;;5115166;28;20114;-72
2022/04/19 03:43:27;;;;;;;1.10;0.68;;;8.60;60.90;;;;;;5114919;28;20130;-72
2022/04/19 03:45:53;;;;;;;0.70;0.60;;;8.50;61.00;;;;;;5115315;28;20464;-71
2022/04/19 03:48:19;;;;;;;0.60;0.40;;;8.50;61.00;;;;;;5115141;28;20032;-72
2022/04/19 03:50:45;;;;;;;0.40;0.40;;;8.50;61.10;;;;;;5115504;28;20044;-72
2022/04/19 03:53:11;;;;;;;1.17;0.80;;;8.30;61.00;;;;;;5079952;28;20046;-71
2022/04/19 03:55:37;;;;;;;1.27;0.70;;;8.50;61.10;;;;;;5096352;28;20035;-72
2022/04/19 03:58:03;;;;;;;0.88;0.63;;;8.50;61.10;;;;;;5096432;28;20079;-72
2022/04/19 04:00:29;;;;;;;0.40;0.40;;;8.50;61.00;;;;;;5114480;28;20038;-72
2022/04/19 04:02:55;;;;;;;0.55;0.50;;;8.50;61.00;;;;;;5097257;28;20047;-72
2022/04/19 04:05:24;;;;;;;1.05;0.70;;;8.50;60.80;;;;;;5115531;28;20141;-72
2022/04/19 04:07:50;;;;;;;1.27;0.68;;;8.50;60.80;;;;;;5097270;28;20126;-72
2022/04/19 04:10:16;;;;;;;0.80;0.60;;;8.60;60.80;;;;;;5115467;28;20358;-71
2022/04/19 04:12:42;;;;;;;1.13;0.77;;;8.50;60.80;;;;;;5114911;28;20047;-72
2022/04/19 04:15:08;;;;;;;1.23;0.60;;;8.60;60.80;;;;;;5114669;28;20039;-71
2022/04/19 04:17:34;;;;;;;0.60;0.50;;;8.40;60.90;;;;;;5096569;28;20400;-72
2022/04/19 04:20:00;;;;;;;0.50;0.50;;;8.40;61.00;;;;;;5096370;28;20040;-71
2022/04/19 04:22:26;;;;;;;0.57;0.45;;;8.40;61.00;;;;;;5114559;28;20043;-71
2022/04/19 04:24:52;;;;;;;0.55;0.50;;;8.40;61.00;;;;;;5097161;28;20044;-72
2022/04/19 04:27:18;;;;;;;1.17;0.68;;;8.40;61.00;;;;;;5096237;28;20131;-71
2022/04/19 04:29:43;;;;;;;1.55;0.75;;;8.40;61.00;;;;;;5114585;28;20525;-71
2022/04/19 04:32:09;;;;;;;0.80;0.50;;;8.60;61.00;;;;;;5114534;28;20481;-72
2022/04/19 04:34:35;;;;;;;0.60;0.55;;;8.50;60.90;;;;;;5114319;28;20047;-72
2022/04/19 04:37:01;;;;;;;1.08;0.60;;;8.50;60.90;;;;;;5114525;28;20081;-72
2022/04/19 04:39:27;;;;;;;1.15;0.70;;;8.50;60.80;;;;;;5114379;28;20389;-72
2022/04/19 04:41:53;;;;;;;1.45;0.70;;;8.60;60.70;;;;;;5113870;28;20040;-72
2022/04/19 04:44:19;;;;;;;0.95;0.68;;;8.60;60.70;;;;;;5095806;28;20051;-71
2022/04/19 04:52:10;;;;;;;0.60;0.57;;;8.70;60.50;;;;;;5113971;28;20048;-72
2022/04/19 04:54:37;;;;;;;0.80;0.57;;;8.70;60.40;;;;;;5113919;28;20071;-72
2022/04/19 04:57:04;;;;;;;0.50;0.50;;;8.80;60.40;;;;;;5096231;28;20122;-72
2022/04/19 04:59:31;;;;;;;0.65;0.50;;;8.80;60.30;;;;;;5114205;28;20075;-71
2022/04/19 05:01:59;;;;;;;0.80;0.63;;;8.80;60.20;;;;;;5095467;28;20404;-72
2022/04/19 05:04:26;;;;;;;0.82;0.63;;;8.90;60.10;;;;;;5095796;28;20120;-71
2022/04/19 05:06:52;;;;;;;1.42;0.82;;;8.90;60.10;;;;;;5114023;28;20047;-72
2022/04/19 05:09:19;;;;;;;0.80;0.60;;;9.00;60.00;;;;;;5095625;28;20035;-72
2022/04/19 05:11:46;;;;;;;1.63;0.63;;;9.00;59.90;;;;;;5095392;28;20043;-72
2022/04/19 05:14:13;;;;;;;1.30;0.80;;;9.10;59.80;;;;;;5095503;28;20054;-71
2022/04/19 05:16:39;;;;;;;1.48;0.65;;;9.10;59.70;;;;;;5114084;28;20039;-72
2022/04/19 05:19:05;;;;;;;1.35;0.90;;;9.20;59.60;;;;;;5114167;28;20035;-72
2022/04/19 05:21:31;;;;;;;1.35;0.75;;;9.30;59.60;;;;;;5113801;28;20095;-72
2022/04/19 05:23:57;;;;;;;1.27;0.55;;;9.30;59.40;;;;;;5113434;28;20058;-72
2022/04/19 05:26:28;;;;;;;0.77;0.73;;;9.30;59.40;;;;;;5095022;28;20138;-72
2022/04/19 05:28:54;;;;;;;1.63;1.10;;;9.40;59.30;;;;;;5096446;28;20038;-72
2022/04/19 05:31:20;;;;;;;0.90;0.70;;;9.40;59.30;;;;;;5095220;28;20677;-72
2022/04/19 05:33:46;;;;;;;2.30;1.08;;;9.50;59.20;;;;;;5113556;28;20044;-71
2022/04/19 05:36:12;;;;;;;1.98;1.10;;;9.50;59.10;;;;;;5114267;28;20028;-71
2022/04/19 05:38:38;;;;;;;1.90;0.85;;;9.60;59.10;;;;;;5113714;28;20047;-71
2022/04/19 05:41:04;;;;;;;0.82;0.80;;;9.60;59.00;;;;;;5078288;28;20518;-71
2022/04/19 05:43:30;;;;;;;1.38;0.90;;;9.70;58.90;;;;;;5094958;28;20051;-72
2022/04/19 05:45:58;;;;;;;1.70;0.73;;;9.80;58.90;;;;;;5113672;28;20039;-71
2022/04/19 05:48:24;;;;;;;1.85;0.80;;;9.70;58.80;;;;;;5095537;28;20031;-72
2022/04/19 05:50:50;;;;;;;2.20;0.90;;;9.90;58.80;;;;;;5095012;28;20378;-71
2022/04/19 05:53:16;;;;;;;1.02;0.80;;;9.90;58.70;;;;;;5094947;28;20043;-72
2022/04/19 05:55:41;;;;;;;1.70;1.02;;;9.90;58.60;;;;;;5113032;28;20047;-72
2022/04/19 05:58:07;;;;;;;1.65;0.80;;;10.00;58.60;;;;;;5094744;28;20036;-72
2022/04/19 06:00:33;;;;;;;2.15;1.00;;;10.10;58.60;;;;;;5113588;28;20044;-72
2022/04/19 06:05:43;;;;;;;1.30;0.90;;;10.20;58.40;;;;;;5112806;28;20478;-72
2022/04/19 06:08:09;;;;;;;1.73;0.98;;;10.30;58.30;;;;;;5095034;28;20180;-72
2022/04/19 06:10:35;;;;;;;0.70;0.65;;;10.40;58.20;;;;;;5113572;28;20036;-72
2022/04/19 06:13:00;;;;;;;1.58;1.00;;;10.50;58.20;;;;;;5112856;28;20392;-71
2022/04/19 06:15:26;;;;;;;1.73;1.05;;;10.50;58.10;;;;;;5113448;28;20039;-71
2022/04/19 06:17:52;;;;;;;1.08;0.80;;;10.70;58.00;;;;;;5094942;28;20039;-72
2022/04/19 06:20:17;;;;;;;1.50;0.90;;;10.70;57.90;;;;;;5112785;28;20393;-70
2022/04/19 06:22:44;;;;;;;1.05;0.85;;;10.80;57.80;;;;;;5113143;28;20035;-72
2022/04/19 06:25:10;;;;;;;1.98;1.10;;;10.90;57.60;;;;;;5112812;28;20093;-72
2022/04/19 06:27:36;;;;;;;1.48;1.00;;;11.00;57.60;;;;;;5113180;28;20054;-72
2022/04/19 06:30:04;;;;;;;0.73;0.63;;;11.10;57.50;;;;;;5113186;28;20134;-72
2022/04/19 06:32:30;;;;;;;1.50;0.77;;;11.20;57.50;;;;;;5112744;28;20046;-72
2022/04/19 06:34:55;;;;;;;1.20;0.82;;;11.20;57.50;;;;;;5094380;28;20047;-72
2022/04/19 06:37:22;;;;;;;0.65;0.60;;;11.30;57.50;;;;;;5112726;28;20036;-72
2022/04/19 06:39:48;;;;;;;1.17;0.80;;;11.30;57.50;;;;;;5094369;28;20059;-72
2022/04/19 06:42:14;;;;;;;1.17;0.85;;;11.40;57.50;;;;;;5112414;28;20045;-71
2022/04/19 06:44:40;;;;;;;1.45;1.00;;;11.50;57.50;;;;;;5112849;28;20073;-72
2022/04/19 06:47:07;;;;;;;1.30;0.70;;;11.60;57.40;;;;;;5112559;28;20036;-72
2022/04/19 06:49:33;;;;;;;1.40;0.88;;;11.60;57.30;;;;;;5094147;28;20457;-72
2022/04/19 06:51:59;;;;;;;2.25;0.90;;;11.60;57.20;;;;;;5112473;28;20043;-70
2022/04/19 06:54:25;;;;;;;1.15;0.90;;;11.70;57.20;;;;;;5112275;28;20143;-70
2022/04/19 06:56:51;;;;;;;2.00;0.98;;;11.80;57.20;;;;;;5094127;28;20036;-71
2022/04/19 07:02:13;;;;;;;2.28;1.20;;;11.90;57.10;;;;;;5058545;28;20123;-71
2022/04/19 07:04:40;;;;;;;2.08;1.20;;;12.00;57.00;;;;;;5062599;28;20043;-70
2022/04/19 07:07:07;;;;;;;1.65;0.90;;;12.10;56.90;;;;;;5064401;28;20046;-70
2022/04/19 07:09:33;;;;;;;2.22;1.25;;;12.10;56.80;;;;;;5063868;28;20400;-71
2022/04/19 07:11:59;;;;;;;1.50;0.88;;;12.20;56.80;;;;;;5097813;28;20046;-71
2022/04/19 07:14:24;;;;;;;1.38;1.00;;;12.30;56.80;;;;;;5080768;28;20047;-72
2022/04/19 07:16:52;;;;;;;1.70;1.00;;;12.30;56.80;;;;;;5097491;28;20118;-71
2022/04/19 07:19:18;;;;;;;1.77;1.27;;;12.40;56.70;;;;;;5115373;28;20044;-72
2022/04/19 07:27:08;;;;;;;1.33;1.00;;;12.60;56.70;;;;;;5099435;28;20104;-71
2022/04/19 07:29:33;;;;;;;1.92;1.00;;;12.70;56.60;;;;;;5115463;28;20134;-71
2022/04/19 07:31:59;;;;;;;1.60;1.10;;;12.80;56.60;;;;;;5115233;28;20047;-71
2022/04/19 07:34:25;;;;;;;0.90;0.80;;;12.80;56.50;;;;;;5063473;28;20043;-71
2022/04/19 07:36:51;;;;;;;2.28;1.27;;;12.90;56.50;;;;;;5063423;28;20168;-71
2022/04/19 07:39:18;;;;;;;1.50;1.00;;;12.90;56.40;;;;;;5115527;28;20505;-71
2022/04/19 07:41:46;;;;;;;1.85;1.10;;;13.00;56.40;;;;;;5096974;28;20027;-71
2022/04/19 07:44:15;;;;;;;1.35;0.93;;;13.00;56.30;;;;;;5097788;28;20040;-70
2022/04/19 07:46:42;;;;;;;1.55;0.98;;;13.10;56.30;;;;;;5095309;28;20047;-71
2022/04/19 07:49:08;;;;;;;1.90;1.13;;;13.20;56.20;;;;;;5063409;28;20409;-71
2022/04/19 07:51:35;;;;;;;1.85;1.20;;;13.30;56.10;;;;;;5115130;28;20055;-70
2022/04/19 07:54:01;;;;;;;1.48;0.93;;;13.40;56.10;;;;;;5096581;28;20051;-70
2022/04/19 07:56:26;;;;;;;1.30;0.88;;;13.40;56.00;;;;;;5096737;28;20481;-70
2022/04/19 07:58:53;;;;;;;1.42;0.90;;;13.60;55.90;;;;;;5115314;28;20039;-71
2022/04/19 08:01:19;;;;;;;1.67;1.10;;;13.60;55.70;;;;;;5097072;28;20035;-71
2022/04/19 08:03:45;;;;;;;1.92;0.98;;;13.80;55.60;;;;;;5096775;28;20439;-70
2022/04/19 08:06:11;;;;;;;1.30;1.00;;;13.90;55.40;;;;;;5096822;28;20043;-71
2022/04/19 08:08:38;;;;;;;1.55;0.85;;;14.00;55.30;;;;;;5096550;28;20585;-72
2022/04/19 08:11:04;;;;;;;1.10;0.85;;;14.10;55.10;;;;;;5096487;28;20043;-72
2022/04/19 08:13:30;;;;;;;1.40;0.88;;;14.30;55.00;;;;;;5114727;28;20046;-72
2022/04/19 08:15:56;;;;;;;1.02;0.80;;;14.40;54.90;;;;;;5095383;28;20455;-72
2022/04/19 08:18:22;;;;;;;1.70;0.93;;;14.60;54.80;;;;;;5079394;28;20053;-72
2022/04/19 08:20:51;;;;;;;1.27;0.90;;;14.80;54.70;;;;;;5096494;28;20107;-72
2022/04/19 08:23:17;;;;;;;1.35;0.80;;;15.00;54.60;;;;;;5080431;28;20103;-71
2022/04/19 08:25:44;;;;;;;2.40;0.90;;;15.20;54.50;;;;;;5096406;28;20086;-71
2022/04/19 08:28:10;;;;;;;2.42;1.02;;;15.30;54.30;;;;;;5079496;28;20513;-71
2022/04/19 08:30:36;;;;;;;1.48;0.90;;;15.30;54.20;;;;;;5115097;28;20028;-71
2022/04/19 08:33:05;;;;;;;1.35;0.80;;;15.50;54.30;;;;;;5096529;28;20039;-71
2022/04/19 08:35:31;;;;;;;1.52;1.00;;;15.60;54.30;;;;;;5095027;28;20050;-71
2022/04/19 08:37:57;;;;;;;1.65;0.98;;;15.80;54.20;;;;;;5062497;28;20384;-70
2022/04/19 08:40:25;;;;;;;2.05;1.20;;;15.90;54.10;;;;;;5095882;28;20040;-70
2022/04/19 08:42:53;;;;;;;2.17;1.23;;;16.00;54.10;;;;;;5097103;28;20126;-70
2022/04/19 08:45:20;;;;;;;1.40;1.10;;;16.20;54.00;;;;;;5096032;28;20047;-70
2022/04/19 08:47:47;;;;;;;1.30;0.93;;;16.30;53.90;;;;;;5112409;28;20046;-70
2022/04/19 08:50:17;;;;;;;2.63;1.30;;;16.40;53.90;;;;;;5095947;28;20085;-70
2022/04/19 08:52:44;;;;;;;2.53;1.17;;;16.50;53.90;;;;;;5095815;28;20039;-70
2022/04/19 08:57:49;;;;;;;1.20;1.00;;;16.70;53.70;;;;;;5113969;28;20044;-71
2022/04/19 09:00:15;;;;;;;2.05;1.25;;;16.80;53.70;;;;;;5096549;28;20127;-70
2022/04/19 09:02:41;;;;;;;1.88;1.10;;;16.90;53.70;;;;;;5078842;28;20051;-71
2022/04/19 09:05:26;;;;;;;2.03;1.00;;;16.90;53.60;;;;;;5114454;28;20047;-70
2022/04/19 09:07:54;;;;;;;1.83;0.95;;;16.90;53.60;;;;;;5112332;28;20039;-70
2022/04/19 09:10:30;;;;;;;3.47;1.20;;;17.00;53.70;;;;;;5113946;28;20123;-70
2022/04/19 09:13:04;;;;;;;2.00;1.30;;;17.10;53.60;;;;;;5112942;28;20035;-71
2022/04/19 09:15:42;;;;;;;1.58;1.10;;;17.20;53.60;;;;;;5114136;28;20069;-71
2022/04/19 09:18:29;;;;;;;1.10;0.80;;;17.30;53.50;;;;;;5112856;28;20039;-71
2022/04/19 09:20:57;;;;;;;1.92;1.20;;;17.30;53.50;;;;;;5095125;28;20164;-71
2022/04/19 09:23:24;;;;;;;0.85;0.65;;;17.40;53.50;;;;;;5113571;28;20062;-70
2022/04/19 09:25:53;;;;;;;2.35;0.98;;;17.50;53.50;;;;;;5078553;28;20085;-71
2022/04/19 09:28:22;;;;;;;1.52;0.98;;;17.60;53.40;;;;;;5078634;28;20401;-70
2022/04/19 09:30:49;;;;;;;1.35;0.80;;;17.70;53.30;;;;;;5114052;28;20098;-71
2022/04/19 09:33:19;;;;;;;2.38;1.30;;;17.80;53.20;;;;;;5094878;28;20056;-70
2022/04/19 09:35:56;;;;;;;2.20;1.25;;;17.80;53.20;;;;;;5113305;28;20748;-70
2022/04/19 09:38:40;;;;;;;1.60;0.90;;;17.90;53.10;;;;;;5079705;28;20060;-70
2022/04/19 09:41:08;;;;;;;1.90;1.13;;;17.90;53.00;;;;;;5111842;28;20081;-70
2022/04/19 09:43:35;;;;;;;2.22;1.10;;;18.00;53.10;;;;;;5078129;28;20045;-70
2022/04/19 09:46:03;;;;;;;1.55;0.90;;;17.90;52.90;;;;;;5113218;28;20093;-71
2022/04/19 09:48:35;;;;;;;1.38;0.90;;;17.90;53.00;;;;;;5095338;28;20027;-71
2022/04/19 09:51:05;;;;;;;1.50;0.98;;;18.00;53.00;;;;;;5095358;28;20087;-71
2022/04/19 09:53:41;;;;;;;2.28;1.00;;;18.00;52.80;;;;;;5112954;28;20047;-71
2022/04/19 09:56:10;;;;;;;1.20;0.90;;;17.90;52.80;;;;;;5113502;28;20069;-71
2022/04/19 09:58:38;;;;;;;0.80;0.80;;;18.00;52.80;;;;;;5077912;28;20035;-71
2022/04/19 10:01:05;;;;;;;0.90;0.60;;;18.00;52.80;;;;;;5112858;28;20027;-71
2022/04/19 10:08:53;;;;;;;2.07;1.07;;;18.20;52.60;;;;;;5112817;28;20042;-71
2022/04/19 10:11:21;;;;;;;1.63;1.10;;;18.30;52.60;;;;;;5112555;28;20274;-71
2022/04/19 10:13:47;;;;;;;1.90;1.05;;;18.30;52.60;;;;;;5094433;28;20044;-70
2022/04/19 10:16:14;;;;;;;2.30;0.93;;;18.30;52.50;;;;;;5061298;28;20036;-69
2022/04/19 10:18:42;;;;;;;1.80;1.00;;;18.30;52.40;;;;;;5112731;28;20051;-70
2022/04/19 10:21:10;;;;;;;1.65;1.02;;;18.40;52.30;;;;;;5112674;28;20048;-70
2022/04/19 10:23:39;;;;;;;1.70;0.90;;;18.40;52.30;;;;;;5077649;28;20070;-70
2022/04/19 10:26:24;;;;;;;1.55;0.90;;;18.40;52.30;;;;;;5061136;28;20047;-70
2022/04/19 10:28:53;;;;;;;1.67;1.08;;;18.50;52.20;;;;;;5111891;28;20059;-69
2022/04/19 10:31:34;;;;;;;1.55;1.10;;;18.40;52.10;;;;;;5113133;28;20051;-69
2022/04/19 10:34:02;;;;;;;1.85;1.17;;;18.40;52.10;;;;;;5112463;28;20041;-69
2022/04/19 10:36:37;;;;;;;1.75;1.10;;;18.30;52.20;;;;;;5112914;28;20048;-70
2022/04/19 10:39:20;;;;;;;3.38;1.23;;;18.20;52.30;;;;;;5114051;28;20043;-70
2022/04/19 10:42:03;;;;;;;1.58;1.00;;;18.20;52.30;;;;;;5116306;28;20041;-69
2022/04/19 10:44:36;;;;;;;1.75;1.00;;;18.20;52.30;;;;;;5083372;28;20048;-71
2022/04/19 10:47:05;;;;;;;1.63;1.10;;;18.20;52.20;;;;;;5081182;28;20052;-71
2022/04/19 10:49:33;;;;;;;1.80;0.95;;;18.30;52.10;;;;;;5098206;28;20047;-72
2022/04/19 10:52:00;;;;;;;1.83;1.10;;;18.30;52.00;;;;;;5081263;28;20063;-72
2022/04/19 10:55:01;;;;;;;1.42;1.10;;;18.30;51.90;;;;;;5116015;28;20378;-72
2022/04/19 11:00:27;;;;;;;2.20;1.08;;;18.30;51.60;;;;;;5098068;28;20100;-72
2022/04/19 11:03:00;;;;;;;1.27;0.90;;;18.30;51.50;;;;;;5097048;28;20035;-72
2022/04/19 11:05:50;;;;;;;1.13;0.85;;;18.30;51.50;;;;;;5115781;28;20039;-72
2022/04/19 11:08:36;;;;;;;1.85;1.00;;;18.40;51.30;;;;;;5113811;28;20151;-72
2022/04/19 11:11:22;;;;;;;1.23;0.70;;;18.50;51.20;;;;;;5095999;28;20039;-71
2022/04/19 11:14:22;;;;;;;1.60;1.00;;;18.50;51.10;;;;;;5096046;28;20477;-71
2022/04/19 11:16:51;;;;;;;1.05;0.88;;;18.60;50.80;;;;;;5113664;28;20508;-71
2022/04/19 11:19:19;;;;;;;1.15;0.90;;;18.60;50.80;;;;;;5097089;28;20069;-73
2022/04/19 11:21:51;;;;;;;1.30;0.90;;;18.80;50.70;;;;;;5097445;28;20047;-72
2022/04/19 11:24:52;;;;;;;1.52;1.05;;;18.60;50.50;;;;;;5080589;28;20042;-72
2022/04/19 11:27:19;;;;;;;1.45;0.80;;;18.60;50.40;;;;;;5113685;28;20040;-71
2022/04/19 11:29:50;;;;;;;2.38;1.02;;;18.70;50.40;;;;;;5080523;28;20462;-72
2022/04/19 11:32:24;;;;;;;1.63;0.90;;;18.80;50.20;;;;;;5097400;28;20040;-72
2022/04/19 11:35:04;;;;;;;1.08;0.60;;;18.90;50.10;;;;;;5096100;28;20088;-71
2022/04/19 11:37:31;;;;;;;1.55;0.90;;;18.90;49.90;;;;;;5097317;28;20040;-71
2022/04/19 11:48:10;;;;;;;1.20;0.77;;;19.00;49.70;;;;;;5072239;28;20048;-70
2022/04/19 11:50:36;;;;;;;1.27;0.80;;;19.10;49.50;;;;;;5053859;28;20753;-71
2022/04/19 11:53:02;;;;;;;1.45;0.85;;;19.10;49.30;;;;;;5055649;28;20076;-71
2022/04/19 11:55:28;;;;;;;1.55;0.90;;;19.30;49.40;;;;;;5022269;28;20071;-71
2022/04/19 11:58:03;;;;;;;1.05;0.80;;;19.20;49.30;;;;;;5038992;28;20076;-71
2022/04/19 12:00:28;;;;;;;0.98;0.60;;;19.30;49.20;;;;;;5053465;28;20195;-71
2022/04/19 12:02:54;;;;;;;1.73;0.93;;;19.30;49.30;;;;;;5072333;28;20033;-70
2022/04/19 12:05:25;;;;;;;1.00;0.80;;;19.30;49.30;;;;;;5022028;28;20468;-71
2022/04/19 12:07:52;;;;;;;2.30;1.00;;;19.30;49.30;;;;;;5055480;28;20052;-71
2022/04/19 12:10:19;;;;;;;1.65;0.95;;;19.30;49.20;;;;;;5038577;28;20056;-71
2022/04/19 12:12:46;;;;;;;1.65;1.00;;;19.30;49.20;;;;;;5021513;28;20045;-71
2022/04/19 12:15:12;;;;;;;0.80;0.73;;;19.30;49.30;;;;;;5075804;28;20057;-72
2022/04/19 12:17:45;;;;;;;1.50;0.90;;;19.30;49.10;;;;;;5115292;28;20051;-72
2022/04/19 12:20:11;;;;;;;0.70;0.70;;;19.40;49.00;;;;;;5094987;28;20374;-72
2022/04/19 12:22:37;;;;;;;1.20;0.90;;;19.30;49.00;;;;;;5079732;28;20035;-73
2022/04/19 12:25:04;;;;;;;1.02;0.80;;;19.30;49.10;;;;;;5080079;28;20058;-72
2022/04/19 12:27:34;;;;;;;1.02;0.73;;;19.30;49.10;;;;;;5114714;28;20231;-73
2022/04/19 12:30:03;;;;;;;1.48;1.00;;;19.50;49.10;;;;;;5078966;28;20107;-72
2022/04/19 12:32:51;;;;;;;1.23;0.90;;;19.50;48.90;;;;;;5095812;28;20036;-72
2022/04/19 12:35:17;;;;;;;1.00;0.80;;;19.50;48.90;;;;;;5113000;28;20071;-73
2022/04/19 12:37:43;;;;;;;1.02;0.70;;;19.40;49.00;;;;;;5114879;28;20036;-72
2022/04/19 12:40:10;;;;;;;0.80;0.70;;;19.40;49.10;;;;;;5079466;28;20028;-72
2022/04/19 12:42:49;;;;;;;1.10;0.80;;;19.40;49.10;;;;;;5096103;28;20050;-72
2022/04/19 12:45:15;;;;;;;1.58;0.70;;;19.30;49.10;;;;;;5077715;28;20047;-72
2022/04/19 12:47:47;;;;;;;0.80;0.70;;;19.30;49.20;;;;;;5097019;28;20043;-72
2022/04/19 12:50:16;;;;;;;1.77;0.90;;;19.30;49.10;;;;;;5114868;28;20123;-72
2022/04/19 12:52:43;;;;;;;0.82;0.80;;;19.30;49.20;;;;;;5079403;28;20492;-71
2022/04/19 12:55:09;;;;;;;1.40;1.00;;;19.30;49.10;;;;;;5114056;28;20409;-69
2022/04/19 12:57:38;;;;;;;1.35;0.95;;;19.30;49.20;;;;;;5079055;28;20055;-70
2022/04/19 13:00:06;;;;;;;0.60;0.60;;;19.30;49.10;;;;;;5096378;28;20070;-70
2022/04/19 13:02:32;;;;;;;0.90;0.65;;;19.20;49.10;;;;;;5078435;28;20036;-71
2022/04/19 13:04:57;;;;;;;0.60;0.52;;;19.30;49.30;;;;;;5078786;28;20096;-71
2022/04/19 13:12:54;;;;;;;0.60;0.60;;;19.20;49.10;;;;;;5082796;28;20044;-71
2022/04/19 13:15:20;;;;;;;0.40;0.40;;;19.20;49.10;;;;;;5095579;28;20046;-70
2022/04/19 13:17:46;;;;;;;0.60;0.60;;;19.10;49.00;;;;;;5070816;28;20037;-71
2022/04/19 13:20:12;;;;;;;0.75;0.52;;;19.10;49.20;;;;;;5070977;28;20457;-70
2022/04/19 13:22:38;;;;;;;0.68;0.68;;;19.10;49.30;;;;;;5054455;28;20434;-70
2022/04/19 13:25:07;;;;;;;0.60;0.60;;;19.20;49.20;;;;;;5070874;28;20048;-71
2022/04/19 13:27:35;;;;;;;1.77;0.70;;;19.20;49.00;;;;;;5070759;28;20051;-71
2022/04/19 13:30:06;;;;;;;0.75;0.70;;;19.20;49.00;;;;;;5070699;28;20044;-72
2022/04/19 13:32:32;;;;;;;1.00;0.70;;;19.20;49.00;;;;;;5070732;28;20090;-71
2022/04/19 13:34:57;;;;;;;0.60;0.60;;;19.20;49.00;;;;;;5054084;28;20040;-70
2022/04/19 13:40:08;;;;;;;1.20;0.60;;;19.30;49.10;;;;;;5070822;28;20037;-71
2022/04/19 13:42:35;;;;;;;0.55;0.52;;;19.30;49.10;;;;;;5070729;28;20043;-71
2022/04/19 13:45:01;;;;;;;0.60;0.60;;;19.20;49.10;;;;;;5070532;28;20125;-70